createdAt,value
2022-10-16T00:02:01.162Z,5.89
2022-10-16T00:04:27.984Z,5.87
2022-10-16T00:06:54.726Z,5.83
2022-10-16T00:09:21.430Z,5.77
2022-10-16T00:11:48.138Z,5.72
2022-10-16T00:14:15.406Z,5.66
2022-10-16T00:16:42.449Z,5.62
2022-10-16T00:19:09.657Z,5.57
2022-10-16T00:21:36.312Z,5.48
2022-10-16T00:24:07.533Z,5.38
2022-10-16T00:26:34.634Z,5.30
2022-10-16T00:29:01.418Z,5.28
2022-10-16T00:31:28.119Z,5.26
2022-10-16T00:33:54.846Z,5.23
2022-10-16T00:36:22.778Z,5.21
2022-10-16T00:38:53.989Z,5.19
2022-10-16T00:41:20.965Z,5.20
2022-10-16T00:43:48.440Z,5.23
2022-10-16T00:46:23.587Z,5.25
2022-10-16T00:49:09.581Z,5.24
2022-10-16T00:51:40.647Z,5.29
2022-10-16T00:54:19.004Z,5.31
2022-10-16T00:56:46.206Z,5.34
2022-10-16T00:59:16.606Z,5.38
2022-10-16T01:01:43.290Z,5.41
2022-10-16T01:04:09.985Z,5.46
2022-10-16T01:06:44.512Z,5.50
2022-10-16T01:09:50.897Z,5.54
2022-10-16T01:12:41.206Z,5.57
2022-10-16T01:15:15.843Z,5.59
2022-10-16T01:17:54.802Z,5.61
2022-10-16T01:20:55.500Z,5.61
2022-10-16T01:23:25.108Z,5.61
2022-10-16T01:25:54.654Z,5.61
2022-10-16T01:28:23.805Z,5.61
2022-10-16T01:30:51.388Z,5.60
2022-10-16T01:33:21.287Z,5.60
2022-10-16T01:35:59.891Z,5.62
2022-10-16T01:38:40.376Z,5.63
2022-10-16T01:41:25.912Z,5.62
2022-10-16T01:43:58.112Z,5.60
2022-10-16T01:46:24.881Z,5.53
2022-10-16T01:48:51.610Z,5.46
2022-10-16T01:51:18.323Z,5.39
2022-10-16T01:53:47.720Z,5.32
2022-10-16T01:56:14.495Z,5.25
2022-10-16T01:58:43.607Z,5.17
2022-10-16T02:01:10.834Z,5.08
2022-10-16T02:03:38.379Z,5.00
2022-10-16T02:06:05.030Z,4.91
2022-10-16T02:08:31.859Z,4.83
2022-10-16T02:10:58.656Z,4.75
2022-10-16T02:13:35.745Z,4.68
2022-10-16T02:16:02.463Z,4.60
2022-10-16T02:18:30.372Z,4.53
2022-10-16T02:21:20.210Z,4.45
2022-10-16T02:24:10.613Z,4.37
2022-10-16T02:26:55.723Z,4.29
2022-10-16T02:29:24.942Z,4.21
2022-10-16T02:32:02.482Z,4.14
2022-10-16T02:34:29.220Z,4.02
2022-10-16T02:36:56.053Z,3.99
2022-10-16T02:39:22.938Z,3.96
2022-10-16T02:41:49.715Z,3.93
2022-10-16T02:44:16.393Z,3.89
2022-10-16T02:46:43.104Z,3.84
2022-10-16T02:49:09.779Z,3.81
2022-10-16T02:51:36.545Z,3.78
2022-10-16T02:54:03.650Z,3.75
2022-10-16T02:56:31.041Z,3.73
2022-10-16T02:58:58.223Z,3.72
2022-10-16T03:01:25.405Z,3.72
2022-10-16T03:03:52.099Z,3.72
2022-10-16T03:06:18.783Z,3.72
2022-10-16T03:08:45.443Z,3.70
2022-10-16T03:11:12.166Z,3.68
2022-10-16T03:13:38.861Z,3.68
2022-10-16T03:16:05.560Z,3.67
2022-10-16T03:18:32.251Z,3.65
2022-10-16T03:20:59.006Z,3.64
2022-10-16T03:23:25.709Z,3.63
2022-10-16T03:25:52.535Z,3.62
2022-10-16T03:28:19.280Z,3.61
2022-10-16T03:30:46.124Z,3.60
2022-10-16T03:33:12.764Z,3.55
2022-10-16T03:35:39.476Z,3.53
2022-10-16T03:38:06.225Z,3.46
2022-10-16T03:40:33.256Z,3.44
2022-10-16T03:43:00.258Z,3.42
2022-10-16T03:45:28.237Z,3.41
2022-10-16T03:47:54.959Z,3.41
2022-10-16T03:50:21.658Z,3.40
2022-10-16T03:52:48.530Z,3.39
2022-10-16T03:55:15.205Z,3.39
2022-10-16T03:57:41.919Z,3.37
2022-10-16T04:00:09.292Z,3.37
2022-10-16T04:02:38.976Z,3.36
2022-10-16T04:05:05.888Z,3.37
2022-10-16T04:07:32.486Z,3.36
2022-10-16T04:10:00.116Z,3.35
2022-10-16T04:12:27.604Z,3.33
2022-10-16T04:14:54.282Z,3.29
2022-10-16T04:17:21.030Z,3.25
2022-10-16T04:19:47.724Z,3.24
2022-10-16T04:22:14.512Z,3.21
2022-10-16T04:24:41.188Z,3.16
2022-10-16T04:27:07.854Z,3.12
2022-10-16T04:29:34.559Z,3.09
2022-10-16T04:32:01.300Z,3.06
2022-10-16T04:34:27.979Z,3.02
2022-10-16T04:36:54.678Z,2.98
2022-10-16T04:39:21.452Z,2.96
2022-10-16T04:41:48.144Z,2.94
2022-10-16T04:44:14.912Z,2.93
2022-10-16T04:46:41.710Z,2.96
2022-10-16T04:49:08.424Z,2.98
2022-10-16T04:51:35.103Z,3.00
2022-10-16T04:54:01.832Z,3.01
2022-10-16T04:56:28.592Z,3.01
2022-10-16T04:58:55.291Z,3.02
2022-10-16T05:01:22.070Z,3.01
2022-10-16T05:03:48.826Z,3.02
2022-10-16T05:06:15.525Z,3.03
2022-10-16T05:08:42.256Z,3.07
2022-10-16T05:11:09.069Z,3.12
2022-10-16T05:13:35.718Z,3.19
2022-10-16T05:16:02.540Z,3.27
2022-10-16T05:18:29.243Z,3.34
2022-10-16T05:20:55.947Z,3.41
2022-10-16T05:23:22.672Z,3.50
2022-10-16T05:25:56.446Z,3.62
2022-10-16T05:28:23.202Z,3.74
2022-10-16T05:30:49.911Z,3.89
2022-10-16T05:33:16.700Z,4.03
2022-10-16T05:35:43.493Z,4.18
2022-10-16T05:38:10.242Z,4.33
2022-10-16T05:40:36.967Z,4.47
2022-10-16T05:43:03.756Z,4.61
2022-10-16T05:45:30.479Z,4.75
2022-10-16T05:47:57.183Z,4.89
2022-10-16T05:50:23.899Z,5.04
2022-10-16T05:52:50.620Z,5.20
2022-10-16T05:55:17.301Z,5.34
2022-10-16T05:57:44.265Z,5.48
2022-10-16T06:00:11.333Z,5.60
2022-10-16T06:02:40.633Z,5.74
2022-10-16T06:05:07.503Z,5.85
2022-10-16T06:07:37.277Z,5.98
2022-10-16T06:10:04.962Z,6.09
2022-10-16T06:12:31.652Z,6.19
2022-10-16T06:14:58.677Z,6.28
2022-10-16T06:17:25.634Z,6.38
2022-10-16T06:19:52.550Z,6.46
2022-10-16T06:22:19.241Z,6.55
2022-10-16T06:26:43.277Z,6.73
2022-10-16T06:29:10.054Z,6.80
2022-10-16T06:31:36.857Z,6.88
2022-10-16T06:34:05.786Z,6.93
2022-10-16T06:36:32.784Z,7.00
2022-10-16T06:38:59.636Z,7.09
2022-10-16T06:41:26.234Z,7.18
2022-10-16T06:43:53.351Z,7.26
2022-10-16T06:46:22.081Z,7.32
2022-10-16T06:48:48.798Z,7.39
2022-10-16T06:51:19.564Z,7.44
2022-10-16T06:54:06.134Z,7.49
2022-10-16T06:56:33.539Z,7.55
2022-10-16T06:59:00.585Z,7.62
2022-10-16T07:01:28.296Z,7.68
2022-10-16T07:03:55.031Z,7.75
2022-10-16T07:06:23.309Z,7.80
2022-10-16T07:08:50.356Z,7.82
2022-10-16T07:11:17.975Z,7.89
2022-10-16T07:13:45.100Z,7.95
2022-10-16T07:16:17.111Z,8.01
2022-10-16T07:18:46.180Z,8.08
2022-10-16T07:21:17.588Z,8.16
2022-10-16T07:23:44.398Z,8.25
2022-10-16T07:26:11.494Z,8.32
2022-10-16T07:28:38.823Z,8.39
2022-10-16T07:31:14.512Z,8.46
2022-10-16T07:33:42.832Z,8.54
2022-10-16T07:36:12.465Z,8.61
2022-10-16T07:38:43.299Z,8.67
2022-10-16T07:41:14.859Z,8.74
2022-10-16T07:43:41.761Z,8.81
2022-10-16T07:46:08.475Z,8.90
2022-10-16T07:48:35.435Z,8.92
2022-10-16T07:51:03.738Z,9.04
2022-10-16T07:53:30.469Z,9.08
2022-10-16T07:56:01.007Z,9.13
2022-10-16T07:58:28.964Z,9.18
2022-10-16T08:00:56.675Z,9.24
2022-10-16T08:03:24.316Z,9.28
2022-10-16T08:05:51.255Z,9.33
2022-10-16T08:08:18.438Z,9.39
2022-10-16T08:10:45.176Z,9.45
2022-10-16T08:13:11.946Z,9.49
2022-10-16T08:15:38.659Z,9.55
2022-10-16T08:18:05.844Z,9.61
2022-10-16T08:20:32.753Z,9.67
2022-10-16T08:23:00.409Z,9.72
2022-10-16T08:25:27.302Z,9.77
2022-10-16T08:27:54.024Z,9.83
2022-10-16T08:30:21.601Z,9.89
2022-10-16T08:32:48.487Z,9.93
2022-10-16T08:35:15.880Z,9.97
2022-10-16T08:37:42.688Z,10.03
2022-10-16T08:40:20.941Z,10.08
2022-10-16T08:43:09.807Z,10.12
2022-10-16T08:45:40.284Z,10.16
2022-10-16T08:48:13.234Z,10.21
2022-10-16T08:50:40.760Z,10.26
2022-10-16T08:53:07.576Z,10.34
2022-10-16T08:55:47.617Z,10.39
2022-10-16T08:58:19.476Z,10.42
2022-10-16T09:00:55.192Z,10.45
2022-10-16T09:03:24.715Z,10.48
2022-10-16T09:06:06.704Z,10.51
2022-10-16T09:08:52.343Z,10.53
2022-10-16T09:11:26.510Z,10.57
2022-10-16T09:14:12.376Z,10.61
2022-10-16T09:16:42.595Z,10.65
2022-10-16T09:19:09.270Z,10.70
2022-10-16T09:21:40.618Z,10.75
2022-10-16T09:24:18.207Z,10.79
2022-10-16T09:26:45.222Z,10.83
2022-10-16T09:29:13.840Z,10.86
2022-10-16T09:31:40.796Z,10.87
2022-10-16T09:34:07.637Z,10.88
2022-10-16T09:36:42.213Z,10.90
2022-10-16T09:39:10.520Z,10.91
2022-10-16T09:41:38.344Z,10.91
2022-10-16T09:44:06.235Z,10.91
2022-10-16T09:46:34.631Z,10.93
2022-10-16T09:49:21.919Z,10.95
2022-10-16T09:51:48.648Z,10.97
2022-10-16T09:54:17.174Z,11.01
2022-10-16T09:56:46.623Z,11.04
2022-10-16T09:59:17.389Z,11.07
2022-10-16T10:01:45.360Z,11.09
2022-10-16T10:04:12.135Z,11.10
2022-10-16T10:06:42.118Z,11.12
2022-10-16T10:09:21.688Z,11.14
2022-10-16T10:11:55.365Z,11.15
2022-10-16T10:14:27.678Z,11.21
2022-10-16T10:17:22.968Z,11.24
2022-10-16T10:19:51.754Z,11.28
2022-10-16T10:22:28.422Z,11.31
2022-10-16T10:25:04.523Z,11.33
2022-10-16T10:27:38.749Z,11.35
2022-10-16T10:30:22.099Z,11.32
2022-10-16T10:33:13.085Z,11.36
2022-10-16T10:35:52.423Z,11.37
2022-10-16T10:38:31.449Z,11.39
2022-10-16T10:41:15.156Z,11.41
2022-10-16T10:44:16.241Z,11.42
2022-10-16T10:46:45.810Z,11.43
2022-10-16T10:49:34.615Z,11.46
2022-10-16T10:52:13.712Z,11.50
2022-10-16T10:54:55.332Z,11.51
2022-10-16T10:57:30.772Z,11.54
2022-10-16T11:00:29.587Z,11.56
2022-10-16T11:03:40.883Z,11.56
2022-10-16T11:06:18.287Z,11.57
2022-10-16T11:08:51.745Z,11.58
2022-10-16T11:11:36.355Z,11.58
2022-10-16T11:14:20.688Z,11.57
2022-10-16T11:17:12.918Z,11.57
2022-10-16T11:19:43.736Z,11.58
2022-10-16T11:22:23.750Z,11.61
2022-10-16T11:25:14.780Z,11.64
2022-10-16T11:27:50.201Z,11.65
2022-10-16T11:30:20.969Z,11.65
2022-10-16T11:32:59.628Z,11.67
2022-10-16T11:35:34.820Z,11.68
2022-10-16T11:38:01.743Z,11.66
2022-10-16T11:40:37.040Z,11.69
2022-10-16T11:43:18.530Z,11.71
2022-10-16T11:45:51.477Z,11.73
2022-10-16T11:48:37.797Z,11.73
2022-10-16T11:51:13.455Z,11.75
2022-10-16T11:53:57.761Z,11.78
2022-10-16T11:56:24.464Z,11.79
2022-10-16T11:59:01.668Z,11.81
2022-10-16T12:01:34.545Z,11.83
2022-10-16T12:04:16.102Z,11.86
2022-10-16T12:06:58.916Z,11.88
2022-10-16T12:09:30.219Z,11.90
2022-10-16T12:11:57.089Z,11.91
2022-10-16T12:14:33.042Z,11.94
2022-10-16T12:17:01.202Z,11.96
2022-10-16T12:19:29.512Z,11.99
2022-10-16T12:22:03.057Z,12.01
2022-10-16T12:24:41.880Z,12.01
2022-10-16T12:27:32.258Z,12.02
2022-10-16T12:30:03.745Z,12.02
2022-10-16T12:32:46.210Z,12.03
2022-10-16T12:35:22.279Z,12.04
2022-10-16T12:37:49.073Z,12.05
2022-10-16T12:40:27.006Z,12.05
2022-10-16T12:42:53.758Z,12.02
2022-10-16T12:45:29.428Z,12.03
2022-10-16T12:47:56.785Z,12.02
2022-10-16T12:50:34.655Z,11.99
2022-10-16T12:53:02.252Z,11.97
2022-10-16T12:55:44.544Z,11.96
2022-10-16T12:58:11.279Z,11.94
2022-10-16T13:00:47.296Z,11.94
2022-10-16T13:03:23.127Z,11.93
2022-10-16T13:05:59.700Z,11.91
2022-10-16T13:09:03.687Z,11.89
2022-10-16T13:11:43.855Z,11.87
2022-10-16T13:14:22.781Z,11.84
2022-10-16T13:17:14.099Z,11.85
2022-10-16T13:19:56.053Z,11.83
2022-10-16T13:22:24.969Z,11.85
2022-10-16T13:24:54.639Z,11.86
2022-10-16T13:27:27.943Z,11.85
2022-10-16T13:30:00.900Z,11.84
2022-10-16T13:32:27.636Z,11.83
2022-10-16T13:34:55.244Z,11.81
2022-10-16T13:37:24.546Z,11.75
2022-10-16T13:39:54.425Z,11.70
2022-10-16T13:42:28.569Z,11.67
2022-10-16T13:44:56.005Z,11.62
2022-10-16T13:47:27.498Z,11.58
2022-10-16T13:50:07.960Z,11.54
2022-10-16T13:52:34.832Z,11.51
2022-10-16T13:55:02.392Z,11.46
2022-10-16T13:57:29.707Z,11.41
2022-10-16T13:59:56.456Z,11.37
2022-10-16T14:02:30.964Z,11.33
2022-10-16T14:04:57.708Z,11.28
2022-10-16T14:07:26.258Z,11.24
2022-10-16T14:09:53.349Z,11.21
2022-10-16T14:12:21.910Z,11.17
2022-10-16T14:14:52.379Z,11.13
2022-10-16T14:17:39.602Z,11.10
2022-10-16T14:20:07.446Z,11.07
2022-10-16T14:22:36.182Z,11.05
2022-10-16T14:25:17.778Z,11.00
2022-10-16T14:27:44.590Z,10.94
2022-10-16T14:30:23.594Z,10.91
2022-10-16T14:32:55.088Z,10.87
2022-10-16T14:35:35.831Z,10.83
2022-10-16T14:38:03.648Z,10.82
2022-10-16T14:40:32.195Z,10.78
2022-10-16T14:42:59.029Z,10.74
2022-10-16T14:45:27.368Z,10.70
2022-10-16T14:47:56.307Z,10.66
2022-10-16T14:50:23.278Z,10.58
2022-10-16T14:52:50.060Z,10.44
2022-10-16T14:55:16.779Z,10.30
2022-10-16T14:57:44.053Z,10.18
2022-10-16T15:00:14.951Z,10.11
2022-10-16T15:02:41.752Z,10.04
2022-10-16T15:05:16.227Z,9.97
2022-10-16T15:07:43.127Z,9.89
2022-10-16T15:10:10.162Z,9.81
2022-10-16T15:12:36.924Z,9.72
2022-10-16T15:15:09.528Z,9.58
2022-10-16T15:17:36.265Z,9.43
2022-10-16T15:20:02.965Z,9.27
2022-10-16T15:22:29.666Z,9.11
2022-10-16T15:24:56.348Z,8.97
2022-10-16T15:27:23.486Z,8.83
2022-10-16T15:29:50.185Z,8.69
2022-10-16T15:32:16.882Z,8.55
2022-10-16T15:34:43.578Z,8.38
2022-10-16T15:37:10.232Z,8.24
2022-10-16T15:39:40.563Z,8.13
2022-10-16T15:42:08.471Z,8.09
2022-10-16T15:44:35.163Z,8.12
2022-10-16T15:47:02.437Z,8.17
2022-10-16T15:49:29.115Z,8.24
2022-10-16T15:51:56.028Z,8.30
2022-10-16T15:54:23.775Z,8.36
2022-10-16T15:56:50.453Z,8.41
2022-10-16T15:59:17.260Z,8.46
2022-10-16T16:01:44.045Z,8.51
2022-10-16T16:04:20.070Z,8.54
2022-10-16T16:06:57.499Z,8.59
2022-10-16T16:09:24.170Z,8.63
2022-10-16T16:11:52.216Z,8.65
2022-10-16T16:14:18.912Z,8.68
2022-10-16T16:16:45.635Z,8.70
2022-10-16T16:19:12.362Z,8.73
2022-10-16T16:21:39.297Z,8.74
2022-10-16T16:24:09.257Z,8.76
2022-10-16T16:26:38.579Z,8.78
2022-10-16T16:29:05.350Z,8.79
2022-10-16T16:31:32.341Z,8.80
2022-10-16T16:33:59.070Z,8.78
2022-10-16T16:36:25.879Z,8.78
2022-10-16T16:38:52.547Z,8.76
2022-10-16T16:41:24.817Z,8.74
2022-10-16T16:43:54.486Z,8.71
2022-10-16T16:46:21.651Z,8.67
2022-10-16T16:48:50.876Z,8.65
2022-10-16T16:51:19.177Z,8.62
2022-10-16T16:53:50.766Z,8.60
2022-10-16T16:56:17.825Z,8.57
2022-10-16T16:58:48.704Z,8.54
2022-10-16T17:01:19.819Z,8.50
2022-10-16T17:03:47.279Z,8.46
2022-10-16T17:06:14.066Z,8.41
2022-10-16T17:08:40.774Z,8.33
2022-10-16T17:11:07.636Z,8.27
2022-10-16T17:13:38.418Z,8.22
2022-10-16T17:16:06.017Z,8.16
2022-10-16T17:18:32.947Z,8.12
2022-10-16T17:21:00.497Z,8.09
2022-10-16T17:23:27.289Z,8.05
2022-10-16T17:25:53.973Z,8.02
2022-10-16T17:28:20.725Z,8.00
2022-10-16T17:30:47.380Z,7.98
2022-10-16T17:33:14.472Z,7.97
2022-10-16T17:35:42.891Z,7.96
2022-10-16T17:38:10.114Z,7.96
2022-10-16T17:40:36.983Z,7.97
2022-10-16T17:43:03.694Z,7.96
2022-10-16T17:45:30.763Z,7.95
2022-10-16T17:48:00.716Z,7.90
2022-10-16T17:50:27.466Z,7.88
2022-10-16T17:52:54.156Z,7.89
2022-10-16T17:55:24.919Z,7.88
2022-10-16T17:57:53.883Z,7.87
2022-10-16T18:00:20.614Z,7.87
2022-10-16T18:02:49.790Z,7.85
2022-10-16T18:05:16.602Z,7.83
2022-10-16T18:07:43.249Z,7.80
2022-10-16T18:10:12.110Z,7.80
2022-10-16T18:12:38.993Z,7.77
2022-10-16T18:15:06.133Z,7.75
2022-10-16T18:17:37.665Z,7.74
2022-10-16T18:20:08.166Z,7.72
2022-10-16T18:22:36.147Z,7.70
2022-10-16T18:25:05.264Z,7.68
2022-10-16T18:27:33.043Z,7.66
2022-10-16T18:30:00.237Z,7.63
2022-10-16T18:32:27.451Z,7.59
2022-10-16T18:34:54.706Z,7.57
2022-10-16T18:37:21.558Z,7.56
2022-10-16T18:39:51.284Z,7.55
2022-10-16T18:43:38.614Z,7.54
2022-10-16T18:46:07.251Z,7.52
2022-10-16T18:48:34.228Z,7.51
2022-10-16T18:51:11.529Z,7.51
2022-10-16T18:53:38.546Z,7.50
2022-10-16T18:56:05.649Z,7.44
2022-10-16T18:58:34.120Z,7.39
2022-10-16T19:01:09.527Z,7.35
2022-10-16T19:03:36.559Z,7.31
2022-10-16T19:06:03.778Z,7.28
2022-10-16T19:08:32.291Z,7.25
2022-10-16T19:11:05.906Z,7.23
2022-10-16T19:13:32.707Z,7.20
2022-10-16T19:16:09.466Z,7.17
2022-10-16T19:18:45.869Z,7.11
2022-10-16T19:21:12.925Z,7.08
2022-10-16T19:23:39.808Z,7.06
2022-10-16T19:26:07.366Z,7.03
2022-10-16T19:28:34.232Z,7.00
2022-10-16T19:31:02.150Z,6.98
2022-10-16T19:33:28.883Z,6.99
2022-10-16T19:35:55.634Z,6.98
2022-10-16T19:38:22.282Z,6.98
2022-10-16T19:40:49.082Z,6.98
2022-10-16T19:43:15.686Z,6.98
2022-10-16T19:45:42.367Z,6.97
2022-10-16T19:48:09.166Z,6.97
2022-10-16T19:50:35.813Z,6.96
2022-10-16T19:53:02.564Z,6.94
2022-10-16T19:55:30.845Z,6.93
2022-10-16T19:57:57.565Z,6.93
2022-10-16T20:00:24.261Z,6.93
2022-10-16T20:02:50.940Z,6.94
2022-10-16T20:05:17.645Z,6.96
2022-10-16T20:07:44.385Z,6.96
2022-10-16T20:10:11.098Z,6.97
2022-10-16T20:12:37.756Z,6.97
2022-10-16T20:15:05.079Z,6.96
2022-10-16T20:17:31.776Z,6.95
2022-10-16T20:19:58.461Z,6.95
2022-10-16T20:22:25.249Z,6.95
2022-10-16T20:24:51.845Z,6.93
2022-10-16T20:27:18.546Z,6.92
2022-10-16T20:29:45.230Z,6.90
2022-10-16T20:32:12.035Z,6.90
2022-10-16T20:34:39.700Z,6.87
2022-10-16T20:37:06.403Z,6.85
2022-10-16T20:39:33.212Z,6.83
2022-10-16T20:41:59.956Z,6.83
2022-10-16T20:44:26.630Z,6.82
2022-10-16T20:46:55.164Z,6.82
2022-10-16T20:49:39.213Z,6.82
2022-10-16T20:52:06.759Z,6.82
2022-10-16T20:54:33.478Z,6.81
2022-10-16T20:57:00.130Z,6.80
2022-10-16T20:59:26.875Z,6.79
2022-10-16T21:01:53.616Z,6.79
2022-10-16T21:04:20.496Z,6.77
2022-10-16T21:06:47.071Z,6.74
2022-10-16T21:09:13.765Z,6.70
2022-10-16T21:11:40.495Z,6.66
2022-10-16T21:14:07.396Z,6.66
2022-10-16T21:16:34.511Z,6.66
2022-10-16T21:19:01.332Z,6.67
2022-10-16T21:21:28.850Z,6.69
2022-10-16T21:23:56.546Z,6.70
2022-10-16T21:26:26.366Z,6.67
2022-10-16T21:28:54.336Z,6.69
2022-10-16T21:31:22.325Z,6.68
2022-10-16T21:33:49.586Z,6.68
2022-10-16T21:36:21.232Z,6.68
2022-10-16T21:38:48.057Z,6.68
2022-10-16T21:41:15.664Z,6.66
2022-10-16T21:43:42.542Z,6.64
2022-10-16T21:46:09.147Z,6.64
2022-10-16T21:48:35.865Z,6.66
2022-10-16T21:51:02.617Z,6.67
2022-10-16T21:53:29.330Z,6.65
2022-10-16T21:55:56.000Z,6.65
2022-10-16T21:58:22.740Z,6.69
2022-10-16T22:00:49.375Z,6.70
2022-10-16T22:03:16.046Z,6.69
2022-10-16T22:05:42.722Z,6.72
2022-10-16T22:08:09.413Z,6.73
2022-10-16T22:10:36.090Z,6.71
2022-10-16T22:13:02.833Z,6.66
2022-10-16T22:15:29.607Z,6.60
2022-10-16T22:17:56.255Z,6.50
2022-10-16T22:20:22.957Z,6.44
2022-10-16T22:22:49.617Z,6.36
2022-10-16T22:25:16.271Z,6.29
2022-10-16T22:27:42.988Z,6.22
2022-10-16T22:30:10.102Z,6.14
2022-10-16T22:32:36.817Z,6.06
2022-10-16T22:35:03.643Z,5.97
2022-10-16T22:37:30.492Z,5.90
2022-10-16T22:39:59.004Z,5.81
2022-10-16T22:42:27.745Z,5.71
2022-10-16T22:44:54.438Z,5.63
2022-10-16T22:47:21.216Z,5.58
2022-10-16T22:49:48.062Z,5.57
2022-10-16T22:52:14.720Z,5.56
2022-10-16T22:54:41.395Z,5.55
2022-10-16T22:57:08.109Z,5.56
2022-10-16T22:59:34.915Z,5.57
2022-10-16T23:02:01.522Z,5.58
2022-10-16T23:04:28.214Z,5.60
2022-10-16T23:06:54.935Z,5.61
2022-10-16T23:09:22.325Z,5.59
2022-10-16T23:11:49.010Z,5.64
2022-10-16T23:14:21.129Z,5.65
2022-10-16T23:16:48.430Z,5.66
2022-10-16T23:19:15.224Z,5.65
2022-10-16T23:21:41.923Z,5.63
2022-10-16T23:24:08.870Z,5.59
2022-10-16T23:26:35.527Z,5.54
2022-10-16T23:29:02.302Z,5.50
2022-10-16T23:31:29.069Z,5.46
2022-10-16T23:33:56.737Z,5.43
2022-10-16T23:36:23.914Z,5.41
2022-10-16T23:38:50.931Z,5.41
2022-10-16T23:41:18.467Z,5.41
2022-10-16T23:43:45.280Z,5.42
2022-10-16T23:46:12.324Z,5.42
2022-10-16T23:48:39.235Z,5.42
2022-10-16T23:51:06.517Z,5.41
2022-10-16T23:53:33.205Z,5.41
2022-10-16T23:56:00.085Z,5.40
2022-10-16T23:58:26.768Z,5.38
